sensor_id;sensor_type;location;lat;lon;timestamp;P1;durP1;ratioP1;P2;durP2;ratioP2
56319;SDS011;42226;42.382;23.748;2022-09-09T00:04:36;9.20;;;8.43;;
56319;SDS011;42226;42.382;23.748;2022-09-09T00:07:23;9.40;;;8.50;;
56319;SDS011;42226;42.382;23.748;2022-09-09T00:12:59;9.38;;;8.57;;
56319;SDS011;42226;42.382;23.748;2022-09-09T00:16:13;7.38;;;6.68;;
56319;SDS011;42226;42.382;23.748;2022-09-09T00:19:00;8.35;;;7.65;;
56319;SDS011;42226;42.382;23.748;2022-09-09T00:24:46;8.25;;;7.55;;
56319;SDS011;42226;42.382;23.748;2022-09-09T00:27:38;8.27;;;7.57;;
56319;SDS011;42226;42.382;23.748;2022-09-09T00:30:16;8.30;;;7.50;;
56319;SDS011;42226;42.382;23.748;2022-09-09T00:32:48;8.30;;;7.50;;
56319;SDS011;42226;42.382;23.748;2022-09-09T00:40:50;8.82;;;8.13;;
56319;SDS011;42226;42.382;23.748;2022-09-09T00:43:28;9.63;;;8.73;;
56319;SDS011;42226;42.382;23.748;2022-09-09T00:46:00;9.50;;;8.65;;
56319;SDS011;42226;42.382;23.748;2022-09-09T00:52:03;9.05;;;8.15;;
56319;SDS011;42226;42.382;23.748;2022-09-09T00:55:05;9.77;;;8.77;;
56319;SDS011;42226;42.382;23.748;2022-09-09T00:58:01;9.02;;;8.20;;
56319;SDS011;42226;42.382;23.748;2022-09-09T01:00:30;10.43;;;9.40;;
56319;SDS011;42226;42.382;23.748;2022-09-09T01:03:25;9.93;;;9.00;;
56319;SDS011;42226;42.382;23.748;2022-09-09T01:06:29;10.20;;;8.73;;
56319;SDS011;42226;42.382;23.748;2022-09-09T01:11:57;8.98;;;8.07;;
56319;SDS011;42226;42.382;23.748;2022-09-09T01:14:55;9.65;;;8.73;;
56319;SDS011;42226;42.382;23.748;2022-09-09T01:17:40;9.77;;;8.88;;
56319;SDS011;42226;42.382;23.748;2022-09-09T01:20:26;10.05;;;9.23;;
56319;SDS011;42226;42.382;23.748;2022-09-09T01:28:48;8.25;;;7.22;;
56319;SDS011;42226;42.382;23.748;2022-09-09T01:31:22;8.63;;;7.90;;
56319;SDS011;42226;42.382;23.748;2022-09-09T01:34:07;7.97;;;7.20;;
56319;SDS011;42226;42.382;23.748;2022-09-09T01:36:45;8.55;;;7.63;;
56319;SDS011;42226;42.382;23.748;2022-09-09T01:39:22;8.23;;;7.40;;
56319;SDS011;42226;42.382;23.748;2022-09-09T01:41:50;8.73;;;7.00;;
56319;SDS011;42226;42.382;23.748;2022-09-09T01:44:18;8.85;;;8.05;;
56319;SDS011;42226;42.382;23.748;2022-09-09T01:46:46;8.55;;;6.93;;
56319;SDS011;42226;42.382;23.748;2022-09-09T01:49:13;8.55;;;7.70;;
56319;SDS011;42226;42.382;23.748;2022-09-09T01:51:43;9.40;;;8.63;;
56319;SDS011;42226;42.382;23.748;2022-09-09T01:54:17;7.80;;;5.90;;
56319;SDS011;42226;42.382;23.748;2022-09-09T01:56:53;7.07;;;6.38;;
56319;SDS011;42226;42.382;23.748;2022-09-09T01:59:50;6.90;;;6.20;;
56319;SDS011;42226;42.382;23.748;2022-09-09T02:08:00;8.07;;;6.10;;
56319;SDS011;42226;42.382;23.748;2022-09-09T02:13:27;7.47;;;6.75;;
56319;SDS011;42226;42.382;23.748;2022-09-09T02:21:53;6.00;;;5.43;;
56319;SDS011;42226;42.382;23.748;2022-09-09T02:24:23;8.13;;;6.45;;
56319;SDS011;42226;42.382;23.748;2022-09-09T02:26:53;6.75;;;6.22;;
56319;SDS011;42226;42.382;23.748;2022-09-09T02:29:24;7.97;;;6.38;;
56319;SDS011;42226;42.382;23.748;2022-09-09T02:31:58;6.88;;;5.72;;
56319;SDS011;42226;42.382;23.748;2022-09-09T02:34:31;6.82;;;6.13;;
56319;SDS011;42226;42.382;23.748;2022-09-09T02:37:06;6.63;;;5.95;;
56319;SDS011;42226;42.382;23.748;2022-09-09T02:39:36;6.55;;;5.75;;
56319;SDS011;42226;42.382;23.748;2022-09-09T02:42:04;8.02;;;6.32;;
56319;SDS011;42226;42.382;23.748;2022-09-09T02:44:34;7.50;;;6.38;;
56319;SDS011;42226;42.382;23.748;2022-09-09T02:49:44;8.65;;;5.97;;
56319;SDS011;42226;42.382;23.748;2022-09-09T02:52:33;7.25;;;6.40;;
56319;SDS011;42226;42.382;23.748;2022-09-09T02:58:17;6.88;;;6.28;;
56319;SDS011;42226;42.382;23.748;2022-09-09T03:00:46;7.30;;;5.85;;
56319;SDS011;42226;42.382;23.748;2022-09-09T03:03:15;6.55;;;5.95;;
56319;SDS011;42226;42.382;23.748;2022-09-09T03:05:45;6.50;;;5.78;;
56319;SDS011;42226;42.382;23.748;2022-09-09T03:08:12;6.32;;;5.82;;
56319;SDS011;42226;42.382;23.748;2022-09-09T03:10:40;6.63;;;5.63;;
56319;SDS011;42226;42.382;23.748;2022-09-09T03:13:07;6.18;;;5.57;;
56319;SDS011;42226;42.382;23.748;2022-09-09T03:15:35;7.63;;;6.10;;
56319;SDS011;42226;42.382;23.748;2022-09-09T03:18:04;6.50;;;5.85;;
56319;SDS011;42226;42.382;23.748;2022-09-09T03:20:31;6.80;;;6.00;;
56319;SDS011;42226;42.382;23.748;2022-09-09T03:22:59;6.53;;;5.90;;
56319;SDS011;42226;42.382;23.748;2022-09-09T03:25:28;7.70;;;6.30;;
56319;SDS011;42226;42.382;23.748;2022-09-09T03:27:56;6.70;;;6.00;;
56319;SDS011;42226;42.382;23.748;2022-09-09T03:30:26;6.95;;;6.25;;
56319;SDS011;42226;42.382;23.748;2022-09-09T03:32:56;6.60;;;5.90;;
56319;SDS011;42226;42.382;23.748;2022-09-09T03:35:23;7.40;;;6.70;;
56319;SDS011;42226;42.382;23.748;2022-09-09T03:37:50;7.03;;;6.30;;
56319;SDS011;42226;42.382;23.748;2022-09-09T03:40:17;7.43;;;6.72;;
56319;SDS011;42226;42.382;23.748;2022-09-09T03:42:46;7.28;;;6.68;;
56319;SDS011;42226;42.382;23.748;2022-09-09T03:45:13;7.50;;;6.80;;
56319;SDS011;42226;42.382;23.748;2022-09-09T03:47:42;10.50;;;7.22;;
56319;SDS011;42226;42.382;23.748;2022-09-09T03:50:10;7.25;;;6.57;;
56319;SDS011;42226;42.382;23.748;2022-09-09T03:52:39;7.95;;;7.20;;
56319;SDS011;42226;42.382;23.748;2022-09-09T03:55:08;7.43;;;6.82;;
56319;SDS011;42226;42.382;23.748;2022-09-09T03:57:35;6.97;;;6.25;;
56319;SDS011;42226;42.382;23.748;2022-09-09T04:00:04;7.40;;;6.60;;
56319;SDS011;42226;42.382;23.748;2022-09-09T04:02:34;8.27;;;6.93;;
56319;SDS011;42226;42.382;23.748;2022-09-09T04:05:02;8.88;;;7.18;;
56319;SDS011;42226;42.382;23.748;2022-09-09T04:07:28;8.18;;;7.45;;
56319;SDS011;42226;42.382;23.748;2022-09-09T04:09:56;7.97;;;7.28;;
56319;SDS011;42226;42.382;23.748;2022-09-09T04:12:22;8.30;;;7.60;;
56319;SDS011;42226;42.382;23.748;2022-09-09T04:14:50;8.90;;;8.13;;
56319;SDS011;42226;42.382;23.748;2022-09-09T04:17:17;8.43;;;7.00;;
56319;SDS011;42226;42.382;23.748;2022-09-09T04:19:45;8.32;;;7.72;;
56319;SDS011;42226;42.382;23.748;2022-09-09T04:22:12;8.85;;;7.57;;
56319;SDS011;42226;42.382;23.748;2022-09-09T04:24:40;8.63;;;7.05;;
56319;SDS011;42226;42.382;23.748;2022-09-09T04:27:07;8.18;;;7.40;;
56319;SDS011;42226;42.382;23.748;2022-09-09T04:29:34;8.07;;;7.38;;
56319;SDS011;42226;42.382;23.748;2022-09-09T04:32:01;8.55;;;7.20;;
56319;SDS011;42226;42.382;23.748;2022-09-09T04:34:28;8.00;;;7.30;;
56319;SDS011;42226;42.382;23.748;2022-09-09T04:36:57;8.18;;;7.47;;
56319;SDS011;42226;42.382;23.748;2022-09-09T04:39:23;8.65;;;8.02;;
56319;SDS011;42226;42.382;23.748;2022-09-09T04:41:51;8.20;;;7.40;;
56319;SDS011;42226;42.382;23.748;2022-09-09T04:44:19;8.50;;;7.80;;
56319;SDS011;42226;42.382;23.748;2022-09-09T04:46:46;8.50;;;7.72;;
56319;SDS011;42226;42.382;23.748;2022-09-09T04:49:13;8.63;;;7.82;;
56319;SDS011;42226;42.382;23.748;2022-09-09T04:51:41;7.32;;;6.65;;
56319;SDS011;42226;42.382;23.748;2022-09-09T04:54:08;8.25;;;7.50;;
56319;SDS011;42226;42.382;23.748;2022-09-09T04:56:36;8.68;;;7.88;;
56319;SDS011;42226;42.382;23.748;2022-09-09T04:59:04;8.63;;;7.90;;
56319;SDS011;42226;42.382;23.748;2022-09-09T05:01:30;9.18;;;7.57;;
56319;SDS011;42226;42.382;23.748;2022-09-09T05:03:58;7.78;;;7.03;;
56319;SDS011;42226;42.382;23.748;2022-09-09T05:06:25;7.45;;;6.85;;
56319;SDS011;42226;42.382;23.748;2022-09-09T05:08:52;7.68;;;7.00;;
56319;SDS011;42226;42.382;23.748;2022-09-09T05:11:21;7.68;;;7.07;;
56319;SDS011;42226;42.382;23.748;2022-09-09T05:13:51;8.50;;;7.43;;
56319;SDS011;42226;42.382;23.748;2022-09-09T05:16:20;7.78;;;7.03;;
56319;SDS011;42226;42.382;23.748;2022-09-09T05:18:48;7.90;;;7.25;;
56319;SDS011;42226;42.382;23.748;2022-09-09T05:21:17;7.38;;;6.78;;
56319;SDS011;42226;42.382;23.748;2022-09-09T05:23:47;7.53;;;6.82;;
56319;SDS011;42226;42.382;23.748;2022-09-09T05:26:15;7.55;;;6.95;;
56319;SDS011;42226;42.382;23.748;2022-09-09T05:28:44;7.80;;;7.20;;
56319;SDS011;42226;42.382;23.748;2022-09-09T05:31:12;8.20;;;7.05;;
56319;SDS011;42226;42.382;23.748;2022-09-09T05:33:41;7.22;;;6.72;;
56319;SDS011;42226;42.382;23.748;2022-09-09T05:36:19;6.97;;;6.35;;
56319;SDS011;42226;42.382;23.748;2022-09-09T05:38:47;7.03;;;6.43;;
56319;SDS011;42226;42.382;23.748;2022-09-09T05:41:16;7.15;;;6.55;;
56319;SDS011;42226;42.382;23.748;2022-09-09T05:43:43;7.60;;;6.82;;
56319;SDS011;42226;42.382;23.748;2022-09-09T05:46:14;7.25;;;6.55;;
56319;SDS011;42226;42.382;23.748;2022-09-09T05:48:48;7.97;;;7.20;;
56319;SDS011;42226;42.382;23.748;2022-09-09T05:51:18;7.95;;;7.15;;
56319;SDS011;42226;42.382;23.748;2022-09-09T05:53:49;7.43;;;6.63;;
56319;SDS011;42226;42.382;23.748;2022-09-09T05:56:20;7.20;;;6.60;;
56319;SDS011;42226;42.382;23.748;2022-09-09T05:58:51;8.10;;;7.35;;
56319;SDS011;42226;42.382;23.748;2022-09-09T06:01:29;7.80;;;6.93;;
56319;SDS011;42226;42.382;23.748;2022-09-09T06:04:01;7.53;;;6.43;;
56319;SDS011;42226;42.382;23.748;2022-09-09T06:06:33;7.03;;;6.43;;
56319;SDS011;42226;42.382;23.748;2022-09-09T06:09:05;7.07;;;6.38;;
56319;SDS011;42226;42.382;23.748;2022-09-09T06:11:35;7.25;;;6.65;;
56319;SDS011;42226;42.382;23.748;2022-09-09T06:14:05;7.50;;;6.75;;
56319;SDS011;42226;42.382;23.748;2022-09-09T06:16:34;7.00;;;6.30;;
56319;SDS011;42226;42.382;23.748;2022-09-09T06:19:03;6.97;;;6.20;;
56319;SDS011;42226;42.382;23.748;2022-09-09T06:21:32;6.93;;;6.32;;
56319;SDS011;42226;42.382;23.748;2022-09-09T06:24:06;7.20;;;6.50;;
56319;SDS011;42226;42.382;23.748;2022-09-09T06:26:34;7.70;;;6.20;;
56319;SDS011;42226;42.382;23.748;2022-09-09T06:29:07;8.05;;;6.85;;
56319;SDS011;42226;42.382;23.748;2022-09-09T06:31:35;7.35;;;6.53;;
56319;SDS011;42226;42.382;23.748;2022-09-09T06:34:07;6.97;;;6.28;;
56319;SDS011;42226;42.382;23.748;2022-09-09T06:36:37;6.93;;;6.03;;
56319;SDS011;42226;42.382;23.748;2022-09-09T06:39:06;7.90;;;5.78;;
56319;SDS011;42226;42.382;23.748;2022-09-09T06:41:36;5.53;;;5.03;;
56319;SDS011;42226;42.382;23.748;2022-09-09T06:44:04;6.35;;;5.57;;
56319;SDS011;42226;42.382;23.748;2022-09-09T06:46:32;5.85;;;5.20;;
56319;SDS011;42226;42.382;23.748;2022-09-09T06:48:59;5.07;;;4.63;;
56319;SDS011;42226;42.382;23.748;2022-09-09T06:51:28;5.80;;;5.30;;
56319;SDS011;42226;42.382;23.748;2022-09-09T06:54:02;5.30;;;4.80;;
56319;SDS011;42226;42.382;23.748;2022-09-09T06:56:31;6.38;;;5.30;;
56319;SDS011;42226;42.382;23.748;2022-09-09T06:59:01;6.20;;;4.78;;
56319;SDS011;42226;42.382;23.748;2022-09-09T07:01:41;4.78;;;4.38;;
56319;SDS011;42226;42.382;23.748;2022-09-09T07:04:11;5.30;;;4.80;;
56319;SDS011;42226;42.382;23.748;2022-09-09T07:06:43;5.50;;;5.00;;
56319;SDS011;42226;42.382;23.748;2022-09-09T07:09:13;4.88;;;4.47;;
56319;SDS011;42226;42.382;23.748;2022-09-09T07:11:45;6.80;;;4.60;;
56319;SDS011;42226;42.382;23.748;2022-09-09T07:14:16;4.63;;;3.95;;
56319;SDS011;42226;42.382;23.748;2022-09-09T07:16:44;5.47;;;4.22;;
56319;SDS011;42226;42.382;23.748;2022-09-09T07:19:20;4.70;;;3.92;;
56319;SDS011;42226;42.382;23.748;2022-09-09T07:21:47;4.28;;;3.88;;
56319;SDS011;42226;42.382;23.748;2022-09-09T07:24:15;5.13;;;3.90;;
56319;SDS011;42226;42.382;23.748;2022-09-09T07:26:43;5.60;;;3.65;;
56319;SDS011;42226;42.382;23.748;2022-09-09T07:29:12;3.78;;;3.35;;
56319;SDS011;42226;42.382;23.748;2022-09-09T07:31:39;5.28;;;3.78;;
56319;SDS011;42226;42.382;23.748;2022-09-09T07:34:08;3.83;;;3.30;;
56319;SDS011;42226;42.382;23.748;2022-09-09T07:36:37;5.03;;;3.50;;
56319;SDS011;42226;42.382;23.748;2022-09-09T07:39:07;6.50;;;3.78;;
56319;SDS011;42226;42.382;23.748;2022-09-09T07:41:40;4.05;;;3.50;;
56319;SDS011;42226;42.382;23.748;2022-09-09T07:44:18;4.03;;;3.58;;
56319;SDS011;42226;42.382;23.748;2022-09-09T07:46:48;4.70;;;3.77;;
56319;SDS011;42226;42.382;23.748;2022-09-09T07:49:16;4.47;;;3.80;;
56319;SDS011;42226;42.382;23.748;2022-09-09T07:51:45;4.97;;;4.47;;
56319;SDS011;42226;42.382;23.748;2022-09-09T07:54:16;6.18;;;4.03;;
56319;SDS011;42226;42.382;23.748;2022-09-09T07:56:50;5.47;;;4.10;;
56319;SDS011;42226;42.382;23.748;2022-09-09T07:59:18;5.10;;;4.55;;
56319;SDS011;42226;42.382;23.748;2022-09-09T08:01:47;4.82;;;4.30;;
56319;SDS011;42226;42.382;23.748;2022-09-09T08:04:20;4.57;;;4.10;;
56319;SDS011;42226;42.382;23.748;2022-09-09T08:06:53;6.55;;;4.65;;
56319;SDS011;42226;42.382;23.748;2022-09-09T08:09:24;4.80;;;4.40;;
56319;SDS011;42226;42.382;23.748;2022-09-09T08:11:54;4.95;;;4.53;;
56319;SDS011;42226;42.382;23.748;2022-09-09T08:14:23;5.55;;;4.57;;
56319;SDS011;42226;42.382;23.748;2022-09-09T08:16:51;6.03;;;4.70;;
56319;SDS011;42226;42.382;23.748;2022-09-09T08:19:20;5.30;;;4.80;;
56319;SDS011;42226;42.382;23.748;2022-09-09T08:21:49;6.10;;;5.30;;
56319;SDS011;42226;42.382;23.748;2022-09-09T08:24:16;5.45;;;4.88;;
56319;SDS011;42226;42.382;23.748;2022-09-09T08:26:46;4.93;;;4.40;;
56319;SDS011;42226;42.382;23.748;2022-09-09T08:29:15;5.68;;;5.07;;
56319;SDS011;42226;42.382;23.748;2022-09-09T08:31:46;5.60;;;5.10;;
56319;SDS011;42226;42.382;23.748;2022-09-09T08:34:24;6.53;;;4.70;;
56319;SDS011;42226;42.382;23.748;2022-09-09T08:36:53;5.57;;;4.90;;
56319;SDS011;42226;42.382;23.748;2022-09-09T08:39:21;5.40;;;4.90;;
56319;SDS011;42226;42.382;23.748;2022-09-09T08:47:59;6.72;;;4.82;;
56319;SDS011;42226;42.382;23.748;2022-09-09T08:50:41;5.32;;;4.80;;
56319;SDS011;42226;42.382;23.748;2022-09-09T08:53:29;5.65;;;4.88;;
56319;SDS011;42226;42.382;23.748;2022-09-09T08:56:13;4.70;;;4.28;;
56319;SDS011;42226;42.382;23.748;2022-09-09T08:58:50;5.53;;;4.55;;
56319;SDS011;42226;42.382;23.748;2022-09-09T09:04:21;4.60;;;4.20;;
56319;SDS011;42226;42.382;23.748;2022-09-09T09:07:35;5.07;;;4.38;;
56319;SDS011;42226;42.382;23.748;2022-09-09T09:13:17;4.78;;;4.35;;
56319;SDS011;42226;42.382;23.748;2022-09-09T09:16:03;5.28;;;4.63;;
56319;SDS011;42226;42.382;23.748;2022-09-09T09:18:39;7.22;;;4.60;;
56319;SDS011;42226;42.382;23.748;2022-09-09T09:21:31;5.20;;;4.72;;
56319;SDS011;42226;42.382;23.748;2022-09-09T09:33:10;4.70;;;4.30;;
56319;SDS011;42226;42.382;23.748;2022-09-09T09:35:42;6.85;;;5.00;;
56319;SDS011;42226;42.382;23.748;2022-09-09T09:38:28;7.88;;;4.60;;
56319;SDS011;42226;42.382;23.748;2022-09-09T09:40:57;4.82;;;4.43;;
56319;SDS011;42226;42.382;23.748;2022-09-09T09:43:34;5.53;;;4.25;;
56319;SDS011;42226;42.382;23.748;2022-09-09T09:46:05;5.13;;;4.50;;
56319;SDS011;42226;42.382;23.748;2022-09-09T09:49:02;4.35;;;3.92;;
56319;SDS011;42226;42.382;23.748;2022-09-09T09:54:50;5.55;;;4.20;;
56319;SDS011;42226;42.382;23.748;2022-09-09T09:57:17;5.10;;;4.00;;
56319;SDS011;42226;42.382;23.748;2022-09-09T10:00:00;4.72;;;4.28;;
56319;SDS011;42226;42.382;23.748;2022-09-09T10:02:45;5.05;;;3.95;;
56319;SDS011;42226;42.382;23.748;2022-09-09T10:05:17;4.63;;;4.10;;
56319;SDS011;42226;42.382;23.748;2022-09-09T10:10:45;9.63;;;4.32;;
56319;SDS011;42226;42.382;23.748;2022-09-09T10:16:41;4.15;;;3.78;;
56319;SDS011;42226;42.382;23.748;2022-09-09T10:19:36;5.65;;;3.88;;
56319;SDS011;42226;42.382;23.748;2022-09-09T10:22:17;5.47;;;4.28;;
56319;SDS011;42226;42.382;23.748;2022-09-09T10:28:35;4.18;;;3.78;;
56319;SDS011;42226;42.382;23.748;2022-09-09T10:34:44;5.93;;;3.72;;
56319;SDS011;42226;42.382;23.748;2022-09-09T10:37:42;5.53;;;3.90;;
56319;SDS011;42226;42.382;23.748;2022-09-09T10:51:51;4.53;;;3.65;;
56319;SDS011;42226;42.382;23.748;2022-09-09T11:00:18;5.60;;;3.78;;
56319;SDS011;42226;42.382;23.748;2022-09-09T11:03:06;4.72;;;3.60;;
56319;SDS011;42226;42.382;23.748;2022-09-09T11:05:53;4.22;;;3.70;;
56319;SDS011;42226;42.382;23.748;2022-09-09T11:08:32;6.43;;;3.72;;
56319;SDS011;42226;42.382;23.748;2022-09-09T11:16:41;6.00;;;3.78;;
56319;SDS011;42226;42.382;23.748;2022-09-09T11:19:23;6.97;;;3.83;;
56319;SDS011;42226;42.382;23.748;2022-09-09T11:24:59;5.15;;;4.07;;
56319;SDS011;42226;42.382;23.748;2022-09-09T11:27:44;4.28;;;3.88;;
56319;SDS011;42226;42.382;23.748;2022-09-09T11:30:34;4.97;;;3.80;;
56319;SDS011;42226;42.382;23.748;2022-09-09T11:33:51;4.60;;;3.70;;
56319;SDS011;42226;42.382;23.748;2022-09-09T11:42:42;4.47;;;3.80;;
56319;SDS011;42226;42.382;23.748;2022-09-09T11:45:15;4.32;;;3.92;;
56319;SDS011;42226;42.382;23.748;2022-09-09T11:47:57;4.93;;;3.97;;
56319;SDS011;42226;42.382;23.748;2022-09-09T11:56:04;4.10;;;3.80;;
56319;SDS011;42226;42.382;23.748;2022-09-09T11:58:40;7.10;;;3.60;;
56319;SDS011;42226;42.382;23.748;2022-09-09T12:01:55;5.97;;;3.78;;
56319;SDS011;42226;42.382;23.748;2022-09-09T12:06:53;5.60;;;3.78;;
56319;SDS011;42226;42.382;23.748;2022-09-09T12:12:29;4.50;;;3.58;;
56319;SDS011;42226;42.382;23.748;2022-09-09T12:17:42;4.15;;;3.70;;
56319;SDS011;42226;42.382;23.748;2022-09-09T12:20:22;5.50;;;3.83;;
56319;SDS011;42226;42.382;23.748;2022-09-09T12:22:59;4.60;;;4.07;;
56319;SDS011;42226;42.382;23.748;2022-09-09T12:34:46;4.30;;;3.80;;
56319;SDS011;42226;42.382;23.748;2022-09-09T12:40:28;4.55;;;4.00;;
56319;SDS011;42226;42.382;23.748;2022-09-09T12:43:00;3.70;;;3.40;;
56319;SDS011;42226;42.382;23.748;2022-09-09T12:45:41;4.82;;;3.75;;
56319;SDS011;42226;42.382;23.748;2022-09-09T12:48:09;4.32;;;3.70;;
56319;SDS011;42226;42.382;23.748;2022-09-09T12:50:51;4.78;;;3.97;;
56319;SDS011;42226;42.382;23.748;2022-09-09T12:56:03;5.90;;;4.18;;
56319;SDS011;42226;42.382;23.748;2022-09-09T12:58:35;4.15;;;3.75;;
56319;SDS011;42226;42.382;23.748;2022-09-09T13:01:04;5.68;;;3.90;;
56319;SDS011;42226;42.382;23.748;2022-09-09T13:03:32;6.00;;;4.10;;
56319;SDS011;42226;42.382;23.748;2022-09-09T13:06:13;4.78;;;4.15;;
56319;SDS011;42226;42.382;23.748;2022-09-09T13:08:51;5.05;;;4.13;;
56319;SDS011;42226;42.382;23.748;2022-09-09T13:11:20;4.47;;;4.05;;
56319;SDS011;42226;42.382;23.748;2022-09-09T13:13:53;4.53;;;4.13;;
56319;SDS011;42226;42.382;23.748;2022-09-09T13:18:58;5.63;;;4.30;;
56319;SDS011;42226;42.382;23.748;2022-09-09T13:21:43;5.40;;;4.50;;
56319;SDS011;42226;42.382;23.748;2022-09-09T13:27:24;5.55;;;4.40;;
56319;SDS011;42226;42.382;23.748;2022-09-09T13:30:00;4.70;;;4.07;;
56319;SDS011;42226;42.382;23.748;2022-09-09T13:32:46;4.78;;;4.30;;
56319;SDS011;42226;42.382;23.748;2022-09-09T13:35:23;6.22;;;4.30;;
56319;SDS011;42226;42.382;23.748;2022-09-09T13:40:56;6.05;;;4.22;;
56319;SDS011;42226;42.382;23.748;2022-09-09T13:43:26;4.70;;;4.30;;
56319;SDS011;42226;42.382;23.748;2022-09-09T13:46:03;4.90;;;4.40;;
56319;SDS011;42226;42.382;23.748;2022-09-09T13:48:55;5.47;;;4.35;;
56319;SDS011;42226;42.382;23.748;2022-09-09T13:51:46;7.70;;;4.47;;
56319;SDS011;42226;42.382;23.748;2022-09-09T13:54:19;5.35;;;4.47;;
56319;SDS011;42226;42.382;23.748;2022-09-09T13:56:47;5.55;;;4.30;;
56319;SDS011;42226;42.382;23.748;2022-09-09T13:59:17;5.20;;;4.30;;
56319;SDS011;42226;42.382;23.748;2022-09-09T14:01:46;6.70;;;4.68;;
56319;SDS011;42226;42.382;23.748;2022-09-09T14:04:15;5.20;;;4.57;;
56319;SDS011;42226;42.382;23.748;2022-09-09T14:06:42;4.82;;;4.40;;
56319;SDS011;42226;42.382;23.748;2022-09-09T14:12:18;4.95;;;4.53;;
56319;SDS011;42226;42.382;23.748;2022-09-09T14:14:46;5.45;;;4.53;;
56319;SDS011;42226;42.382;23.748;2022-09-09T14:17:13;5.10;;;4.55;;
56319;SDS011;42226;42.382;23.748;2022-09-09T14:19:40;6.00;;;4.60;;
56319;SDS011;42226;42.382;23.748;2022-09-09T14:22:08;5.22;;;4.72;;
56319;SDS011;42226;42.382;23.748;2022-09-09T14:24:35;5.78;;;4.72;;
56319;SDS011;42226;42.382;23.748;2022-09-09T14:27:03;5.75;;;4.82;;
56319;SDS011;42226;42.382;23.748;2022-09-09T14:29:31;5.60;;;4.60;;
56319;SDS011;42226;42.382;23.748;2022-09-09T14:31:59;5.45;;;4.70;;
56319;SDS011;42226;42.382;23.748;2022-09-09T14:34:27;6.05;;;4.75;;
56319;SDS011;42226;42.382;23.748;2022-09-09T14:36:54;5.03;;;4.55;;
56319;SDS011;42226;42.382;23.748;2022-09-09T14:39:22;5.93;;;5.00;;
56319;SDS011;42226;42.382;23.748;2022-09-09T14:41:49;5.70;;;4.70;;
56319;SDS011;42226;42.382;23.748;2022-09-09T14:44:16;5.85;;;4.70;;
56319;SDS011;42226;42.382;23.748;2022-09-09T14:46:43;5.65;;;4.80;;
56319;SDS011;42226;42.382;23.748;2022-09-09T14:49:11;5.82;;;4.70;;
56319;SDS011;42226;42.382;23.748;2022-09-09T14:51:38;7.47;;;5.20;;
56319;SDS011;42226;42.382;23.748;2022-09-09T14:54:07;5.93;;;5.00;;
56319;SDS011;42226;42.382;23.748;2022-09-09T14:56:36;7.78;;;4.70;;
56319;SDS011;42226;42.382;23.748;2022-09-09T14:59:04;5.60;;;5.10;;
56319;SDS011;42226;42.382;23.748;2022-09-09T15:01:32;5.93;;;4.88;;
56319;SDS011;42226;42.382;23.748;2022-09-09T15:04:00;7.80;;;4.90;;
56319;SDS011;42226;42.382;23.748;2022-09-09T15:06:31;5.43;;;4.90;;
56319;SDS011;42226;42.382;23.748;2022-09-09T15:09:04;5.45;;;4.95;;
56319;SDS011;42226;42.382;23.748;2022-09-09T15:11:34;5.80;;;4.78;;
56319;SDS011;42226;42.382;23.748;2022-09-09T15:14:08;6.38;;;4.90;;
56319;SDS011;42226;42.382;23.748;2022-09-09T15:16:35;5.57;;;4.90;;
56319;SDS011;42226;42.382;23.748;2022-09-09T15:19:04;7.10;;;4.90;;
56319;SDS011;42226;42.382;23.748;2022-09-09T15:21:33;6.72;;;4.95;;
56319;SDS011;42226;42.382;23.748;2022-09-09T15:24:01;5.70;;;4.57;;
56319;SDS011;42226;42.382;23.748;2022-09-09T15:26:30;5.20;;;4.60;;
56319;SDS011;42226;42.382;23.748;2022-09-09T15:28:58;6.32;;;5.10;;
56319;SDS011;42226;42.382;23.748;2022-09-09T15:31:29;6.63;;;4.90;;
56319;SDS011;42226;42.382;23.748;2022-09-09T15:34:01;5.15;;;4.65;;
56319;SDS011;42226;42.382;23.748;2022-09-09T15:36:31;6.38;;;4.72;;
56319;SDS011;42226;42.382;23.748;2022-09-09T15:39:11;6.53;;;4.68;;
56319;SDS011;42226;42.382;23.748;2022-09-09T15:41:44;6.97;;;4.75;;
56319;SDS011;42226;42.382;23.748;2022-09-09T15:44:14;4.97;;;4.53;;
56319;SDS011;42226;42.382;23.748;2022-09-09T15:46:43;5.43;;;4.88;;
56319;SDS011;42226;42.382;23.748;2022-09-09T15:49:24;6.55;;;5.30;;
56319;SDS011;42226;42.382;23.748;2022-09-09T15:51:54;6.03;;;5.50;;
56319;SDS011;42226;42.382;23.748;2022-09-09T15:54:28;5.72;;;5.22;;
56319;SDS011;42226;42.382;23.748;2022-09-09T15:57:00;5.43;;;4.93;;
56319;SDS011;42226;42.382;23.748;2022-09-09T15:59:31;5.95;;;5.38;;
56319;SDS011;42226;42.382;23.748;2022-09-09T16:01:59;6.05;;;5.45;;
56319;SDS011;42226;42.382;23.748;2022-09-09T16:04:27;7.15;;;4.95;;
56319;SDS011;42226;42.382;23.748;2022-09-09T16:06:55;5.80;;;5.30;;
56319;SDS011;42226;42.382;23.748;2022-09-09T16:09:30;6.35;;;5.72;;
56319;SDS011;42226;42.382;23.748;2022-09-09T16:15:40;5.75;;;5.35;;
56319;SDS011;42226;42.382;23.748;2022-09-09T16:18:08;6.28;;;5.60;;
56319;SDS011;42226;42.382;23.748;2022-09-09T16:20:36;6.07;;;5.50;;
56319;SDS011;42226;42.382;23.748;2022-09-09T16:23:02;7.47;;;5.57;;
56319;SDS011;42226;42.382;23.748;2022-09-09T16:25:30;6.28;;;5.60;;
56319;SDS011;42226;42.382;23.748;2022-09-09T16:27:57;6.28;;;5.68;;
56319;SDS011;42226;42.382;23.748;2022-09-09T16:30:24;9.13;;;5.90;;
56319;SDS011;42226;42.382;23.748;2022-09-09T16:32:52;6.75;;;5.97;;
56319;SDS011;42226;42.382;23.748;2022-09-09T16:38:33;5.90;;;5.30;;
56319;SDS011;42226;42.382;23.748;2022-09-09T16:41:01;6.32;;;5.72;;
56319;SDS011;42226;42.382;23.748;2022-09-09T16:43:31;10.23;;;6.55;;
56319;SDS011;42226;42.382;23.748;2022-09-09T16:46:23;7.32;;;6.10;;
56319;SDS011;42226;42.382;23.748;2022-09-09T16:48:51;7.30;;;6.60;;
56319;SDS011;42226;42.382;23.748;2022-09-09T16:51:22;6.40;;;5.90;;
56319;SDS011;42226;42.382;23.748;2022-09-09T16:53:58;9.05;;;6.60;;
56319;SDS011;42226;42.382;23.748;2022-09-09T16:56:29;7.32;;;6.40;;
56319;SDS011;42226;42.382;23.748;2022-09-09T16:59:00;7.97;;;6.25;;
56319;SDS011;42226;42.382;23.748;2022-09-09T17:01:32;6.75;;;6.10;;
56319;SDS011;42226;42.382;23.748;2022-09-09T17:04:09;6.40;;;5.80;;
56319;SDS011;42226;42.382;23.748;2022-09-09T17:06:46;6.72;;;6.10;;
56319;SDS011;42226;42.382;23.748;2022-09-09T17:09:16;8.02;;;5.70;;
56319;SDS011;42226;42.382;23.748;2022-09-09T17:11:44;7.38;;;6.32;;
56319;SDS011;42226;42.382;23.748;2022-09-09T17:14:14;7.70;;;6.38;;
56319;SDS011;42226;42.382;23.748;2022-09-09T17:16:44;7.80;;;6.55;;
56319;SDS011;42226;42.382;23.748;2022-09-09T17:19:12;6.28;;;5.68;;
56319;SDS011;42226;42.382;23.748;2022-09-09T17:21:40;7.53;;;6.85;;
56319;SDS011;42226;42.382;23.748;2022-09-09T17:24:07;21.65;;;7.32;;
56319;SDS011;42226;42.382;23.748;2022-09-09T17:26:37;7.00;;;6.30;;
56319;SDS011;42226;42.382;23.748;2022-09-09T17:29:05;6.93;;;5.90;;
56319;SDS011;42226;42.382;23.748;2022-09-09T17:31:33;9.07;;;5.88;;
56319;SDS011;42226;42.382;23.748;2022-09-09T17:34:01;6.25;;;5.63;;
56319;SDS011;42226;42.382;23.748;2022-09-09T17:36:33;9.85;;;5.72;;
56319;SDS011;42226;42.382;23.748;2022-09-09T17:39:03;11.65;;;5.63;;
56319;SDS011;42226;42.382;23.748;2022-09-09T17:41:33;7.18;;;5.70;;
56319;SDS011;42226;42.382;23.748;2022-09-09T17:44:03;10.30;;;5.95;;
56319;SDS011;42226;42.382;23.748;2022-09-09T17:46:34;7.03;;;5.60;;
56319;SDS011;42226;42.382;23.748;2022-09-09T17:49:06;5.80;;;5.13;;
56319;SDS011;42226;42.382;23.748;2022-09-09T17:51:37;6.03;;;5.43;;